x

Nickerson Bank (44251) Wave Buoy

9:00am - Tue 22nd Jul 2014 All times are UTC.

  • Sig Wave height 2.0ft
  • Peak Period 11s
  • Wind
    7mph
  • Sea Temp 55°f
  • Air Temp 55°f
  • Sea Pressure 1018.8mb

More Historic Weather Station data

Upgrade to MSW Pro to gain access to the past 30 days of data for over 8000 Wavebouys and Weather Stations around the globe.

Join Pro

Comparision Forecast

View Surf forecast
   
Tue 07/22 9:00am 2ft 11s 7
mph
1018.8mb 55f 55f
8:00am 2ft 10s 4
mph
1018.5mb 55f 55f
7:00am 2ft 10s 7 9 mph 1018.6mb 55f 55f
6:00am 2ft 10s 7
mph
1019mb 55f 55f
5:00am 2ft 8s 4
mph
1019.3mb 55f 55f
4:00am 2ft 8s 7
mph
1019.9mb 56f 56f
3:00am 2.5ft 10s 7 9 mph 1020.4mb 56f 56f
2:00am 2.5ft 10s 9 11 mph 1020.8mb 56f 57f
1:00am 2.5ft 8s 9
mph
1021.2mb 56f 56f
12:00am 2.5ft 11s 7 9 mph 1021.5mb 56f 56f
Mon 07/21 11:00pm 2.5ft 11s 7 9 mph 1021.6mb 56f 56f
10:00pm 2.5ft 11s 9
mph
1021.6mb 56f 56f
9:00pm 2.5ft 11s 9
mph
1021.8mb 56f 57f
8:00pm 2.5ft 11s 9 11 mph 1022mb 55f 57f
7:00pm 2.5ft 8s 11
mph
1022.4mb 56f 57f
6:00pm 2.5ft 7s 11
mph
1022.6mb 55f 58f
5:00pm 2.5ft 8s 11 13 mph 1023mb 56f 57f
4:00pm 2.5ft 11s 11
mph
1023.3mb 56f 57f
3:00pm 2.5ft 12s 9 11 mph 1023.9mb 55f 56f
2:00pm 2.5ft 8s 11 13 mph 1024mb 55f 56f
1:00pm 3ft 11s 9
mph
1024.2mb 55f 56f
12:00pm 3ft 12s 9 11 mph 1024.4mb 55f 56f
11:00am 3.5ft 12s 11 13 mph 1024.5mb 55f 56f
10:00am 3.5ft 8s 11 13 mph 1024.2mb 54f 56f
9:00am 3.5ft 7s 13
mph
1024.1mb 53f 56f
8:00am 3.5ft 7s 11 13 mph 1023.8mb 53f 55f
7:00am 3.5ft 8s 11 13 mph 1023.9mb 53f 56f
6:00am 3.5ft 8s 13 16 mph 1023.7mb 54f 56f
5:00am 3.5ft 8s 16 18 mph 1023.8mb 54f 57f
4:00am 3.5ft 8s 16 18 mph 1024mb 54f 57f
3:00am 3.5ft 8s 16 18 mph 1024.2mb 55f 57f
2:00am 3.5ft 8s 16 18 mph 1024.4mb 55f 58f
1:00am 3.5ft 9s 18 20 mph 1024.5mb 55f 58f
12:00am 3.5ft 8s 16 18 mph 1024.5mb 55f 58f
Sun 07/20 11:00pm 3.5ft 8s 16 18 mph 1024mb 56f 58f
10:00pm 3.5ft 8s 16 18 mph 1024mb 56f 58f
9:00pm 3.5ft 8s 13 16 mph 1024.2mb 56f 57f
8:00pm 4ft 8s 13 18 mph 1024.5mb 56f 56f
7:00pm 3.5ft 8s 16 18 mph 1024.6mb 56f 56f
6:00pm 3.5ft 8s 16 18 mph 1025mb 57f 56f
5:00pm 3.5ft 8s 13 16 mph 1025.5mb 57f 56f
4:00pm 3.5ft 8s 11 13 mph 1025.6mb 57f 56f
3:00pm 4ft 8s 9 13 mph 1025.8mb 56f 56f
2:00pm 4.5ft 8s 9 11 mph 1026.1mb 56f 56f
1:00pm 4ft 9s 11 13 mph 1026.2mb 56f 55f
12:00pm 4ft 9s 7
mph
1025.9mb 56f 53f
11:00am 4.5ft 8s 4
mph
1026.1mb 56f 52f
10:00am 4.5ft 8s 4 7 mph 1025.8mb 56f 52f
9:00am 4ft 8s 4 7 mph 1025.1mb 55f 56f
8:00am 4.5ft 8s 9 11 mph 1024.7mb 55f 55f
7:00am 4.5ft 9s 7 9 mph 1024.6mb 55f 54f
6:00am 4.5ft 9s 4 7 mph 1025mb 54f 53f
5:00am 4.5ft 9s 4
mph
1025.1mb 54f 52f
4:00am 4.5ft 9s  -  2 mph 1025.7mb 54f 52f
3:00am 4.5ft 9s 2
mph
1025.7mb 54f 51f
2:00am 4.5ft 8s  -  2 mph 1025.3mb 54f 51f
1:00am 4.5ft 9s 2 4 mph 1024.8mb 54f 52f
12:00am 4.5ft 9s 4 7 mph 1024mb 54f 52f
Sat 07/19 11:00pm 4.5ft 9s 9 11 mph 1023.3mb 54f 53f
10:00pm 4.5ft 8s 9 11 mph 1023mb 55f 53f
9:00pm 5ft 9s 9 11 mph 1022.4mb 55f 53f
8:00pm 4.5ft 8s 9 13 mph 1021.8mb 55f 53f
7:00pm 5ft 8s 9 11 mph 1021.4mb 55f 53f
6:00pm 5ft 9s 13 18 mph 1020.9mb 54f 53f
5:00pm 5.5ft 9s 9 11 mph 1019.6mb 54f 55f
4:00pm 5ft 9s 9 11 mph 1019.7mb 53f 55f
3:00pm 5ft 9s 9
mph
1019.5mb 53f 55f
2:00pm 5ft 9s 9 11 mph 1019.3mb 53f 55f
1:00pm 5.5ft 9s 9 11 mph 1019.2mb 53f 55f
12:00pm 5ft 10s 9 11 mph 1019.1mb 54f 55f
11:00am 5.5ft 9s 9
mph
1018.7mb 53f 55f
10:00am 6ft 10s 11
mph
1018.1mb 53f 54f
9:00am 6ft 10s 11 13 mph 1017.6mb 53f 53f
8:00am 6ft 10s 13 16 mph 1017.5mb 53f 54f
7:00am 6ft 10s 9 11 mph 1017.2mb 54f 53f
6:00am 6ft 8s 9 11 mph 1017.2mb 54f 53f
5:00am 6ft 9s 9 13 mph 1017.3mb 54f 54f
4:00am 6ft 9s 9
mph
1017.3mb 54f 54f
3:00am 6ft 9s 13
mph
1018mb 54f 55f
2:00am 6ft 9s 11 13 mph 1017.8mb 53f 55f
1:00am 5.5ft 10s 9 11 mph 1017.7mb 54f 55f
12:00am 5.5ft 10s 11 13 mph 1017.7mb 55f 56f
Fri 07/18 11:00pm 5.5ft 9s 11
mph
1017.7mb 55f 56f
10:00pm 5.5ft 9s 11
mph
1017.5mb 55f 56f
9:00pm 5.5ft 10s 13 16 mph 1016.9mb 55f 57f
8:00pm 6ft 9s 13 16 mph 1016.6mb 56f 57f
7:00pm 6ft 10s 16 18 mph 1016.5mb 56f 58f
6:00pm 6.5ft 10s 13 16 mph 1016.6mb 56f 58f
5:00pm 7ft 10s 13 16 mph 1016.6mb 56f 58f
4:00pm 6.5ft 10s 13 18 mph 1016.6mb 56f 59f
3:00pm 6.5ft 8s 18 20 mph 1016.7mb 56f 60f
2:00pm 7ft 9s 18 22 mph 1017mb 56f 60f
1:00pm 6ft 8s 18 22 mph 1017.1mb 57f 60f
12:00pm 6ft 8s 20 22 mph 1017.4mb 57f 60f
11:00am 6ft 7s 18 20 mph 1017.3mb 57f 60f